BAW926 LOWW-LHBP
Flight info
| Callsign | BAW926 |
|---|---|
| Flight time | 0h 30m |
| Altitude | 19000 |
| Route | ADAMA Z647 ANEXA |
| Aircraft | A320/M-SDE3FGHIRWY/LB1 |
Departure
| Time | 2026-04-24 11:34 |
|---|---|
| Airport | Vienna International Airport (LOWW) |
Arrival
| Time | 2026-04-24 12:05 |
|---|---|
| Airport | Budapest Liszt Ferenc International Airport (LHBP) |
| Time | Latitude | Longitude | Altitude | Speed | Heading |
|---|---|---|---|---|---|
| 2026-04-24 11:16 | 48.11794 | 16.56184 | 602 ft | 0 kts | 343° |
| 2026-04-24 11:28 | 48.11793 | 16.56184 | 600 ft | 2 kts | 343° |
| 2026-04-24 11:29 | 48.11777 | 16.56191 | 601 ft | 2 kts | 343° |
| 2026-04-24 11:29 | 48.11760 | 16.56201 | 601 ft | 3 kts | 316° |
| 2026-04-24 11:29 | 48.11750 | 16.56222 | 601 ft | 3 kts | 279° |
| 2026-04-24 11:29 | 48.11750 | 16.56249 | 601 ft | 3 kts | 243° |
| 2026-04-24 11:30 | 48.11758 | 16.56266 | 601 ft | 0 kts | 217° |
| 2026-04-24 11:30 | 48.11751 | 16.56261 | 601 ft | 2 kts | 204° |
| 2026-04-24 11:30 | 48.11728 | 16.56251 | 601 ft | 5 kts | 197° |
| 2026-04-24 11:30 | 48.11689 | 16.56241 | 601 ft | 7 kts | 183° |
| 2026-04-24 11:31 | 48.11641 | 16.56268 | 601 ft | 9 kts | 142° |
| 2026-04-24 11:31 | 48.11603 | 16.56350 | 601 ft | 11 kts | 122° |
| 2026-04-24 11:31 | 48.11533 | 16.56380 | 601 ft | 12 kts | 180° |
| 2026-04-24 11:31 | 48.11473 | 16.56467 | 601 ft | 14 kts | 117° |
| 2026-04-24 11:32 | 48.11430 | 16.56603 | 601 ft | 15 kts | 115° |
| 2026-04-24 11:32 | 48.11383 | 16.56755 | 601 ft | 17 kts | 115° |
| 2026-04-24 11:32 | 48.11331 | 16.56924 | 601 ft | 19 kts | 114° |
| 2026-04-24 11:32 | 48.11278 | 16.57085 | 601 ft | 17 kts | 117° |
| 2026-04-24 11:33 | 48.11221 | 16.57250 | 601 ft | 19 kts | 117° |
| 2026-04-24 11:33 | 48.11154 | 16.57429 | 601 ft | 21 kts | 118° |
| 2026-04-24 11:33 | 48.11059 | 16.57513 | 600 ft | 18 kts | 195° |
| 2026-04-24 11:33 | 48.10968 | 16.57394 | 600 ft | 19 kts | 269° |
| 2026-04-24 11:34 | 48.11033 | 16.57162 | 600 ft | 45 kts | 296° |
| 2026-04-24 11:34 | 48.11266 | 16.56432 | 602 ft | 107 kts | 298° |
| 2026-04-24 11:34 | 48.11676 | 16.55222 | 625 ft | 152 kts | 301° |
| 2026-04-24 11:34 | 48.12152 | 16.53819 | 1219 ft | 150 kts | 297° |
| 2026-04-24 11:35 | 48.12229 | 16.52291 | 1930 ft | 160 kts | 251° |
| 2026-04-24 11:35 | 48.11358 | 16.51076 | 2375 ft | 191 kts | 207° |
| 2026-04-24 11:35 | 48.10020 | 16.50373 | 2794 ft | 215 kts | 201° |
| 2026-04-24 11:35 | 48.08553 | 16.49708 | 3493 ft | 223 kts | 200° |
| 2026-04-24 11:36 | 48.07058 | 16.49051 | 4416 ft | 225 kts | 198° |
| 2026-04-24 11:36 | 48.05472 | 16.48986 | 5255 ft | 236 kts | 169° |
| 2026-04-24 11:36 | 48.03898 | 16.50040 | 5683 ft | 262 kts | 148° |
| 2026-04-24 11:36 | 48.02293 | 16.51575 | 6113 ft | 286 kts | 148° |
| 2026-04-24 11:37 | 48.00572 | 16.53200 | 6835 ft | 297 kts | 148° |
| 2026-04-24 11:37 | 47.98808 | 16.54863 | 7667 ft | 302 kts | 145° |
| 2026-04-24 11:37 | 47.97301 | 16.57053 | 8485 ft | 305 kts | 122° |
| 2026-04-24 11:37 | 47.96459 | 16.59920 | 9323 ft | 303 kts | 98° |
| 2026-04-24 11:38 | 47.96393 | 16.63028 | 10163 ft | 299 kts | 75° |
| 2026-04-24 11:38 | 47.96977 | 16.66042 | 10600 ft | 313 kts | 67° |
| 2026-04-24 11:38 | 47.97712 | 16.69215 | 10918 ft | 331 kts | 66° |
| 2026-04-24 11:38 | 47.98481 | 16.72488 | 11575 ft | 337 kts | 67° |
| 2026-04-24 11:39 | 47.99253 | 16.75810 | 12315 ft | 340 kts | 69° |
| 2026-04-24 11:39 | 47.99755 | 16.79291 | 13065 ft | 347 kts | 81° |
| 2026-04-24 11:39 | 47.99961 | 16.82855 | 13792 ft | 351 kts | 82° |
| 2026-04-24 11:39 | 48.00164 | 16.86501 | 14458 ft | 353 kts | 82° |
| 2026-04-24 11:40 | 48.00368 | 16.90173 | 15082 ft | 356 kts | 82° |
| 2026-04-24 11:40 | 48.00574 | 16.93870 | 15677 ft | 359 kts | 82° |
| 2026-04-24 11:40 | 48.00786 | 16.97602 | 16274 ft | 362 kts | 82° |
| 2026-04-24 11:40 | 48.01001 | 17.01362 | 16881 ft | 365 kts | 82° |
| 2026-04-24 11:41 | 48.01016 | 17.05178 | 17503 ft | 372 kts | 92° |
| 2026-04-24 11:41 | 48.00721 | 17.09042 | 18108 ft | 375 kts | 94° |
| 2026-04-24 11:41 | 48.00419 | 17.12936 | 18680 ft | 378 kts | 94° |
| 2026-04-24 11:41 | 48.00118 | 17.16852 | 19219 ft | 381 kts | 94° |
| 2026-04-24 11:42 | 47.99813 | 17.20800 | 19775 ft | 384 kts | 94° |
| 2026-04-24 11:42 | 47.99504 | 17.24772 | 20342 ft | 387 kts | 94° |
| 2026-04-24 11:42 | 47.99191 | 17.28777 | 20884 ft | 389 kts | 94° |
| 2026-04-24 11:42 | 47.98880 | 17.32799 | 21407 ft | 392 kts | 94° |
| 2026-04-24 11:43 | 47.98660 | 17.35488 | 21748 ft | 394 kts | 95° |
| 2026-04-24 11:43 | 47.98266 | 17.39545 | 22247 ft | 397 kts | 96° |
| 2026-04-24 11:43 | 47.97812 | 17.43627 | 22766 ft | 400 kts | 96° |
| 2026-04-24 11:43 | 47.97169 | 17.49067 | 23046 ft | 399 kts | 97° |
| 2026-04-24 11:44 | 47.96686 | 17.53066 | 23071 ft | 388 kts | 96° |
| 2026-04-24 11:44 | 47.96215 | 17.57017 | 23075 ft | 385 kts | 96° |
| 2026-04-24 11:44 | 47.95906 | 17.59673 | 23078 ft | 385 kts | 96° |
| 2026-04-24 11:44 | 47.95458 | 17.63612 | 23078 ft | 384 kts | 96° |
| 2026-04-24 11:45 | 47.95020 | 17.67486 | 23079 ft | 384 kts | 96° |
| 2026-04-24 11:45 | 47.94572 | 17.71462 | 23081 ft | 384 kts | 96° |
| 2026-04-24 11:45 | 47.94127 | 17.75390 | 23084 ft | 384 kts | 96° |
| 2026-04-24 11:45 | 47.93675 | 17.79323 | 23081 ft | 384 kts | 96° |
| 2026-04-24 11:46 | 47.93228 | 17.83197 | 23083 ft | 384 kts | 96° |
| 2026-04-24 11:46 | 47.92773 | 17.87119 | 23083 ft | 384 kts | 96° |
| 2026-04-24 11:46 | 47.92314 | 17.91047 | 23088 ft | 385 kts | 96° |
| 2026-04-24 11:46 | 47.91856 | 17.94974 | 23092 ft | 385 kts | 96° |
| 2026-04-24 11:47 | 47.91397 | 17.98906 | 23092 ft | 385 kts | 96° |
| 2026-04-24 11:47 | 47.90938 | 18.02835 | 23095 ft | 385 kts | 96° |
| 2026-04-24 11:47 | 47.90479 | 18.06763 | 23093 ft | 385 kts | 96° |
| 2026-04-24 11:47 | 47.90015 | 18.10694 | 23089 ft | 385 kts | 96° |
| 2026-04-24 11:48 | 47.89551 | 18.14620 | 23091 ft | 385 kts | 96° |
| 2026-04-24 11:48 | 47.89084 | 18.18553 | 23089 ft | 385 kts | 96° |
| 2026-04-24 11:48 | 47.88616 | 18.22482 | 23085 ft | 385 kts | 96° |
| 2026-04-24 11:48 | 47.88149 | 18.26384 | 22807 ft | 380 kts | 96° |
| 2026-04-24 11:49 | 47.87687 | 18.30240 | 22341 ft | 377 kts | 96° |
| 2026-04-24 11:49 | 47.87224 | 18.34077 | 21887 ft | 374 kts | 96° |
| 2026-04-24 11:49 | 47.86765 | 18.37870 | 21446 ft | 372 kts | 96° |
| 2026-04-24 11:49 | 47.86312 | 18.41641 | 21013 ft | 369 kts | 97° |
| 2026-04-24 11:50 | 47.85622 | 18.45323 | 20587 ft | 371 kts | 110° |
| 2026-04-24 11:50 | 47.84326 | 18.48660 | 20124 ft | 374 kts | 125° |
| 2026-04-24 11:50 | 47.82493 | 18.51397 | 19679 ft | 377 kts | 141° |
| 2026-04-24 11:50 | 47.80311 | 18.53552 | 19224 ft | 377 kts | 145° |
| 2026-04-24 11:51 | 47.78126 | 18.55634 | 18773 ft | 376 kts | 145° |
| 2026-04-24 11:51 | 47.75928 | 18.57736 | 18324 ft | 376 kts | 145° |
| 2026-04-24 11:51 | 47.73706 | 18.59859 | 17815 ft | 375 kts | 145° |
| 2026-04-24 11:51 | 47.71544 | 18.61917 | 17366 ft | 372 kts | 145° |
| 2026-04-24 11:52 | 47.69372 | 18.64068 | 16936 ft | 368 kts | 139° |
| 2026-04-24 11:52 | 47.67546 | 18.66668 | 16524 ft | 362 kts | 129° |
| 2026-04-24 11:52 | 47.65879 | 18.69445 | 16120 ft | 360 kts | 129° |
| 2026-04-24 11:52 | 47.64212 | 18.72200 | 15713 ft | 358 kts | 129° |
| 2026-04-24 11:53 | 47.62547 | 18.74937 | 15312 ft | 356 kts | 129° |
| 2026-04-24 11:53 | 47.60896 | 18.77644 | 14903 ft | 354 kts | 129° |
| 2026-04-24 11:53 | 47.59263 | 18.80320 | 14508 ft | 353 kts | 129° |
| 2026-04-24 11:53 | 47.57620 | 18.83011 | 14110 ft | 352 kts | 129° |
| 2026-04-24 11:54 | 47.55978 | 18.85698 | 13700 ft | 351 kts | 129° |
| 2026-04-24 11:54 | 47.54338 | 18.88378 | 13276 ft | 349 kts | 130° |
| 2026-04-24 11:54 | 47.52716 | 18.91025 | 12871 ft | 347 kts | 130° |
| 2026-04-24 11:54 | 47.51101 | 18.93661 | 12490 ft | 345 kts | 130° |
| 2026-04-24 11:55 | 47.49491 | 18.96287 | 12106 ft | 344 kts | 130° |
| 2026-04-24 11:55 | 47.47884 | 18.98906 | 11722 ft | 342 kts | 130° |
| 2026-04-24 11:55 | 47.46286 | 19.01504 | 11329 ft | 341 kts | 130° |
| 2026-04-24 11:55 | 47.44688 | 19.04101 | 10942 ft | 340 kts | 130° |
| 2026-04-24 11:56 | 47.43102 | 19.06679 | 10577 ft | 338 kts | 130° |
| 2026-04-24 11:56 | 47.41522 | 19.09248 | 10220 ft | 336 kts | 130° |
| 2026-04-24 11:56 | 47.39972 | 19.11766 | 10094 ft | 326 kts | 130° |
| 2026-04-24 11:56 | 47.38468 | 19.14206 | 9934 ft | 318 kts | 130° |
| 2026-04-24 11:57 | 47.36984 | 19.16610 | 9645 ft | 315 kts | 130° |
| 2026-04-24 11:57 | 47.35513 | 19.18990 | 9307 ft | 312 kts | 130° |
| 2026-04-24 11:57 | 47.34061 | 19.21335 | 8729 ft | 308 kts | 130° |
| 2026-04-24 11:57 | 47.32638 | 19.23633 | 8137 ft | 305 kts | 130° |
| 2026-04-24 11:58 | 47.31218 | 19.25924 | 7622 ft | 300 kts | 130° |
| 2026-04-24 11:58 | 47.29821 | 19.28173 | 7222 ft | 297 kts | 130° |
| 2026-04-24 11:58 | 47.28420 | 19.30422 | 6861 ft | 298 kts | 130° |
| 2026-04-24 11:58 | 47.27020 | 19.32667 | 6540 ft | 296 kts | 130° |
| 2026-04-24 11:59 | 47.25629 | 19.34902 | 6294 ft | 291 kts | 130° |
| 2026-04-24 11:59 | 47.24377 | 19.37116 | 6095 ft | 273 kts | 117° |
| 2026-04-24 11:59 | 47.23851 | 19.39665 | 5874 ft | 255 kts | 88° |
| 2026-04-24 11:59 | 47.24150 | 19.42211 | 5517 ft | 256 kts | 60° |
| 2026-04-24 12:00 | 47.25233 | 19.44306 | 4860 ft | 264 kts | 38° |
| 2026-04-24 12:00 | 47.26625 | 19.46137 | 4397 ft | 268 kts | 38° |
| 2026-04-24 12:00 | 47.28012 | 19.47935 | 4230 ft | 262 kts | 33° |
| 2026-04-24 12:00 | 47.29619 | 19.48821 | 4079 ft | 238 kts | 357° |
| 2026-04-24 12:01 | 47.31114 | 19.48117 | 3760 ft | 225 kts | 319° |
| 2026-04-24 12:01 | 47.31988 | 19.46276 | 3458 ft | 216 kts | 298° |
| 2026-04-24 12:01 | 47.32827 | 19.44532 | 3194 ft | 206 kts | 313° |
| 2026-04-24 12:01 | 47.33817 | 19.42988 | 2908 ft | 207 kts | 314° |
| 2026-04-24 12:02 | 47.34795 | 19.41445 | 2634 ft | 205 kts | 313° |
| 2026-04-24 12:02 | 47.35754 | 19.39912 | 2361 ft | 199 kts | 313° |
| 2026-04-24 12:02 | 47.36661 | 19.38456 | 2102 ft | 187 kts | 313° |
| 2026-04-24 12:02 | 47.37514 | 19.37083 | 1878 ft | 175 kts | 313° |
| 2026-04-24 12:03 | 47.38294 | 19.35829 | 1659 ft | 156 kts | 314° |
| 2026-04-24 12:03 | 47.38976 | 19.34732 | 1443 ft | 138 kts | 313° |
| 2026-04-24 12:03 | 47.39613 | 19.33707 | 1251 ft | 134 kts | 314° |
| 2026-04-24 12:03 | 47.40242 | 19.32695 | 1068 ft | 133 kts | 315° |
| 2026-04-24 12:04 | 47.40863 | 19.31694 | 883 ft | 132 kts | 315° |
| 2026-04-24 12:04 | 47.41478 | 19.30702 | 714 ft | 131 kts | 315° |
| 2026-04-24 12:04 | 47.42090 | 19.29708 | 529 ft | 130 kts | 315° |
| 2026-04-24 12:04 | 47.42680 | 19.28772 | 430 ft | 110 kts | 314° |
| 2026-04-24 12:05 | 47.43071 | 19.28131 | 456 ft | 59 kts | 312° |
| 2026-04-24 12:05 | 47.43289 | 19.27761 | 461 ft | 41 kts | 303° |
| 2026-04-24 12:05 | 47.43356 | 19.27473 | 466 ft | 15 kts | 283° |
| 2026-04-24 12:05 | 47.43380 | 19.27329 | 471 ft | 14 kts | 283° |
| 2026-04-24 12:06 | 47.43403 | 19.27183 | 470 ft | 15 kts | 283° |
| 2026-04-24 12:06 | 47.43430 | 19.27029 | 470 ft | 16 kts | 286° |
| 2026-04-24 12:06 | 47.43494 | 19.26892 | 473 ft | 17 kts | 312° |
| 2026-04-24 12:06 | 47.43583 | 19.26759 | 475 ft | 18 kts | 317° |
| 2026-04-24 12:07 | 47.43671 | 19.26621 | 474 ft | 19 kts | 308° |
| 2026-04-24 12:07 | 47.43747 | 19.26465 | 478 ft | 17 kts | 282° |
| 2026-04-24 12:07 | 47.43682 | 19.26331 | 481 ft | 17 kts | 223° |
| 2026-04-24 12:07 | 47.43592 | 19.26207 | 479 ft | 15 kts | 221° |
| 2026-04-24 12:08 | 47.43492 | 19.26162 | 484 ft | 16 kts | 176° |
| 2026-04-24 12:08 | 47.43436 | 19.26167 | 481 ft | 0 kts | 176° |